sensor_id;sensor_type;location;lat;lon;timestamp;P1;durP1;ratioP1;P2;durP2;ratioP2
44832;SDS011;30569;51.252;9.830;2023-07-29T00:01:40;4.72;;;2.33;;
44832;SDS011;30569;51.252;9.830;2023-07-29T00:04:06;4.75;;;2.08;;
44832;SDS011;30569;51.252;9.830;2023-07-29T00:06:34;4.65;;;2.40;;
44832;SDS011;30569;51.252;9.830;2023-07-29T00:08:59;5.30;;;2.05;;
44832;SDS011;30569;51.252;9.830;2023-07-29T00:11:25;4.53;;;2.35;;
44832;SDS011;30569;51.252;9.830;2023-07-29T00:13:50;4.97;;;2.33;;
44832;SDS011;30569;51.252;9.830;2023-07-29T00:16:17;6.80;;;2.20;;
44832;SDS011;30569;51.252;9.830;2023-07-29T00:18:46;5.32;;;2.17;;
44832;SDS011;30569;51.252;9.830;2023-07-29T00:21:11;4.43;;;2.38;;
44832;SDS011;30569;51.252;9.830;2023-07-29T00:23:37;4.35;;;2.10;;
44832;SDS011;30569;51.252;9.830;2023-07-29T00:26:02;3.53;;;2.00;;
44832;SDS011;30569;51.252;9.830;2023-07-29T00:28:28;4.07;;;2.00;;
44832;SDS011;30569;51.252;9.830;2023-07-29T00:30:53;4.85;;;2.33;;
44832;SDS011;30569;51.252;9.830;2023-07-29T00:33:19;4.40;;;2.05;;
44832;SDS011;30569;51.252;9.830;2023-07-29T00:35:45;3.90;;;2.00;;
44832;SDS011;30569;51.252;9.830;2023-07-29T00:38:11;3.45;;;1.90;;
44832;SDS011;30569;51.252;9.830;2023-07-29T00:40:36;3.42;;;1.90;;
44832;SDS011;30569;51.252;9.830;2023-07-29T00:43:02;5.72;;;1.80;;
44832;SDS011;30569;51.252;9.830;2023-07-29T00:45:29;4.35;;;1.98;;
44832;SDS011;30569;51.252;9.830;2023-07-29T00:47:55;3.45;;;1.90;;
44832;SDS011;30569;51.252;9.830;2023-07-29T00:50:21;5.30;;;2.00;;
44832;SDS011;30569;51.252;9.830;2023-07-29T00:52:47;4.40;;;2.20;;
44832;SDS011;30569;51.252;9.830;2023-07-29T00:55:14;4.97;;;1.95;;
44832;SDS011;30569;51.252;9.830;2023-07-29T00:57:39;6.00;;;1.90;;
44832;SDS011;30569;51.252;9.830;2023-07-29T01:00:06;3.83;;;1.80;;
44832;SDS011;30569;51.252;9.830;2023-07-29T01:02:33;3.40;;;1.80;;
44832;SDS011;30569;51.252;9.830;2023-07-29T01:05:00;4.95;;;1.85;;
44832;SDS011;30569;51.252;9.830;2023-07-29T01:07:30;3.95;;;1.90;;
44832;SDS011;30569;51.252;9.830;2023-07-29T01:10:08;3.90;;;2.10;;
44832;SDS011;30569;51.252;9.830;2023-07-29T01:12:47;3.55;;;1.60;;
44832;SDS011;30569;51.252;9.830;2023-07-29T01:16:09;3.97;;;1.60;;
44832;SDS011;30569;51.252;9.830;2023-07-29T01:18:25;4.93;;;1.60;;
44832;SDS011;30569;51.252;9.830;2023-07-29T01:20:57;3.47;;;1.58;;
44832;SDS011;30569;51.252;9.830;2023-07-29T01:23:31;3.25;;;1.67;;
44832;SDS011;30569;51.252;9.830;2023-07-29T01:25:57;3.33;;;1.63;;
44832;SDS011;30569;51.252;9.830;2023-07-29T01:28:23;4.68;;;1.70;;
44832;SDS011;30569;51.252;9.830;2023-07-29T01:30:49;3.92;;;1.60;;
44832;SDS011;30569;51.252;9.830;2023-07-29T01:33:20;5.93;;;1.80;;
44832;SDS011;30569;51.252;9.830;2023-07-29T01:35:52;4.85;;;1.55;;
44832;SDS011;30569;51.252;9.830;2023-07-29T01:38:30;3.30;;;1.40;;
44832;SDS011;30569;51.252;9.830;2023-07-29T01:41:00;3.17;;;1.70;;
44832;SDS011;30569;51.252;9.830;2023-07-29T01:43:28;4.10;;;1.50;;
44832;SDS011;30569;51.252;9.830;2023-07-29T01:45:54;4.28;;;1.80;;
44832;SDS011;30569;51.252;9.830;2023-07-29T01:48:21;3.25;;;1.60;;
44832;SDS011;30569;51.252;9.830;2023-07-29T01:50:46;3.05;;;1.42;;
44832;SDS011;30569;51.252;9.830;2023-07-29T01:53:12;3.53;;;1.80;;
44832;SDS011;30569;51.252;9.830;2023-07-29T01:55:38;3.08;;;1.30;;
44832;SDS011;30569;51.252;9.830;2023-07-29T01:58:04;3.10;;;1.60;;
44832;SDS011;30569;51.252;9.830;2023-07-29T02:00:29;3.80;;;1.88;;
44832;SDS011;30569;51.252;9.830;2023-07-29T02:02:55;3.33;;;1.67;;
44832;SDS011;30569;51.252;9.830;2023-07-29T02:05:20;3.28;;;1.50;;
44832;SDS011;30569;51.252;9.830;2023-07-29T02:07:46;3.97;;;1.83;;
44832;SDS011;30569;51.252;9.830;2023-07-29T02:10:11;3.15;;;1.50;;
44832;SDS011;30569;51.252;9.830;2023-07-29T02:12:37;3.97;;;1.77;;
44832;SDS011;30569;51.252;9.830;2023-07-29T02:15:03;3.40;;;1.70;;
44832;SDS011;30569;51.252;9.830;2023-07-29T02:17:29;6.90;;;1.50;;
44832;SDS011;30569;51.252;9.830;2023-07-29T02:19:55;5.50;;;1.70;;
44832;SDS011;30569;51.252;9.830;2023-07-29T02:22:21;5.68;;;1.92;;
44832;SDS011;30569;51.252;9.830;2023-07-29T02:24:46;4.05;;;1.73;;
44832;SDS011;30569;51.252;9.830;2023-07-29T02:27:12;4.00;;;2.10;;
44832;SDS011;30569;51.252;9.830;2023-07-29T02:29:37;3.33;;;1.70;;
44832;SDS011;30569;51.252;9.830;2023-07-29T02:32:03;4.22;;;1.70;;
44832;SDS011;30569;51.252;9.830;2023-07-29T02:34:29;3.47;;;1.90;;
44832;SDS011;30569;51.252;9.830;2023-07-29T02:36:55;4.18;;;1.75;;
44832;SDS011;30569;51.252;9.830;2023-07-29T02:39:20;4.20;;;1.90;;
44832;SDS011;30569;51.252;9.830;2023-07-29T02:41:46;3.42;;;1.85;;
44832;SDS011;30569;51.252;9.830;2023-07-29T02:44:12;3.22;;;1.63;;
44832;SDS011;30569;51.252;9.830;2023-07-29T02:46:37;3.22;;;1.80;;
44832;SDS011;30569;51.252;9.830;2023-07-29T02:49:03;3.88;;;2.10;;
44832;SDS011;30569;51.252;9.830;2023-07-29T02:51:31;3.70;;;1.80;;
44832;SDS011;30569;51.252;9.830;2023-07-29T02:53:57;3.80;;;1.70;;
44832;SDS011;30569;51.252;9.830;2023-07-29T02:56:23;3.10;;;1.50;;
44832;SDS011;30569;51.252;9.830;2023-07-29T02:58:48;3.67;;;1.80;;
44832;SDS011;30569;51.252;9.830;2023-07-29T03:01:16;7.25;;;2.10;;
44832;SDS011;30569;51.252;9.830;2023-07-29T03:03:42;3.10;;;1.60;;
44832;SDS011;30569;51.252;9.830;2023-07-29T03:06:08;3.85;;;1.90;;
44832;SDS011;30569;51.252;9.830;2023-07-29T03:08:35;3.60;;;1.92;;
44832;SDS011;30569;51.252;9.830;2023-07-29T03:11:07;3.80;;;1.92;;
44832;SDS011;30569;51.252;9.830;2023-07-29T03:13:37;3.70;;;1.80;;
44832;SDS011;30569;51.252;9.830;2023-07-29T03:16:16;3.30;;;1.73;;
44832;SDS011;30569;51.252;9.830;2023-07-29T03:18:42;3.35;;;1.70;;
44832;SDS011;30569;51.252;9.830;2023-07-29T03:21:08;3.90;;;1.70;;
44832;SDS011;30569;51.252;9.830;2023-07-29T03:23:35;3.25;;;1.60;;
44832;SDS011;30569;51.252;9.830;2023-07-29T03:26:01;4.43;;;1.85;;
44832;SDS011;30569;51.252;9.830;2023-07-29T03:28:34;3.70;;;2.05;;
44832;SDS011;30569;51.252;9.830;2023-07-29T03:31:00;3.60;;;2.10;;
44832;SDS011;30569;51.252;9.830;2023-07-29T03:33:26;3.47;;;1.90;;
44832;SDS011;30569;51.252;9.830;2023-07-29T03:35:52;3.45;;;1.90;;
44832;SDS011;30569;51.252;9.830;2023-07-29T03:38:18;4.60;;;2.20;;
44832;SDS011;30569;51.252;9.830;2023-07-29T03:40:44;4.28;;;2.13;;
44832;SDS011;30569;51.252;9.830;2023-07-29T03:43:10;7.78;;;2.22;;
44832;SDS011;30569;51.252;9.830;2023-07-29T03:45:35;3.65;;;2.03;;
44832;SDS011;30569;51.252;9.830;2023-07-29T03:48:01;3.60;;;1.77;;
44832;SDS011;30569;51.252;9.830;2023-07-29T03:50:28;3.97;;;1.92;;
44832;SDS011;30569;51.252;9.830;2023-07-29T03:52:54;7.97;;;1.95;;
44832;SDS011;30569;51.252;9.830;2023-07-29T03:55:20;4.38;;;2.00;;
44832;SDS011;30569;51.252;9.830;2023-07-29T03:57:45;4.55;;;2.20;;
44832;SDS011;30569;51.252;9.830;2023-07-29T04:00:11;6.28;;;2.10;;
44832;SDS011;30569;51.252;9.830;2023-07-29T04:02:37;4.35;;;2.03;;
44832;SDS011;30569;51.252;9.830;2023-07-29T04:05:03;3.75;;;1.90;;
44832;SDS011;30569;51.252;9.830;2023-07-29T04:07:30;9.23;;;2.40;;
44832;SDS011;30569;51.252;9.830;2023-07-29T04:09:56;7.88;;;2.25;;
44832;SDS011;30569;51.252;9.830;2023-07-29T04:12:21;5.30;;;2.33;;
44832;SDS011;30569;51.252;9.830;2023-07-29T04:14:48;4.00;;;2.20;;
44832;SDS011;30569;51.252;9.830;2023-07-29T04:17:13;4.30;;;2.30;;
44832;SDS011;30569;51.252;9.830;2023-07-29T04:19:39;7.25;;;2.55;;
44832;SDS011;30569;51.252;9.830;2023-07-29T04:22:05;6.25;;;2.30;;
44832;SDS011;30569;51.252;9.830;2023-07-29T04:24:30;4.20;;;2.70;;
44832;SDS011;30569;51.252;9.830;2023-07-29T04:26:56;5.18;;;2.83;;
44832;SDS011;30569;51.252;9.830;2023-07-29T04:29:21;4.75;;;2.65;;
44832;SDS011;30569;51.252;9.830;2023-07-29T04:31:48;4.65;;;2.45;;
44832;SDS011;30569;51.252;9.830;2023-07-29T04:34:14;4.15;;;2.38;;
44832;SDS011;30569;51.252;9.830;2023-07-29T04:36:39;4.32;;;2.65;;
44832;SDS011;30569;51.252;9.830;2023-07-29T04:39:05;6.05;;;3.15;;
44832;SDS011;30569;51.252;9.830;2023-07-29T04:41:31;4.60;;;2.80;;
44832;SDS011;30569;51.252;9.830;2023-07-29T04:43:56;5.32;;;2.70;;
44832;SDS011;30569;51.252;9.830;2023-07-29T04:46:22;4.70;;;2.80;;
44832;SDS011;30569;51.252;9.830;2023-07-29T04:48:47;8.30;;;3.35;;
44832;SDS011;30569;51.252;9.830;2023-07-29T04:51:13;6.57;;;3.47;;
44832;SDS011;30569;51.252;9.830;2023-07-29T04:53:38;5.20;;;3.35;;
44832;SDS011;30569;51.252;9.830;2023-07-29T04:56:04;5.35;;;3.25;;
44832;SDS011;30569;51.252;9.830;2023-07-29T04:58:30;5.93;;;3.53;;
44832;SDS011;30569;51.252;9.830;2023-07-29T05:00:55;6.88;;;3.97;;
44832;SDS011;30569;51.252;9.830;2023-07-29T05:03:21;7.38;;;3.60;;
44832;SDS011;30569;51.252;9.830;2023-07-29T05:05:46;7.45;;;4.32;;
44832;SDS011;30569;51.252;9.830;2023-07-29T05:08:12;6.15;;;4.13;;
44832;SDS011;30569;51.252;9.830;2023-07-29T05:10:38;5.00;;;3.53;;
44832;SDS011;30569;51.252;9.830;2023-07-29T05:13:03;8.27;;;3.40;;
44832;SDS011;30569;51.252;9.830;2023-07-29T05:15:29;5.72;;;3.50;;
44832;SDS011;30569;51.252;9.830;2023-07-29T05:17:55;5.55;;;3.38;;
44832;SDS011;30569;51.252;9.830;2023-07-29T05:20:21;5.60;;;3.28;;
44832;SDS011;30569;51.252;9.830;2023-07-29T05:22:46;5.20;;;3.90;;
44832;SDS011;30569;51.252;9.830;2023-07-29T05:25:12;5.32;;;3.97;;
44832;SDS011;30569;51.252;9.830;2023-07-29T05:27:37;5.20;;;3.85;;
44832;SDS011;30569;51.252;9.830;2023-07-29T05:30:03;6.47;;;4.57;;
44832;SDS011;30569;51.252;9.830;2023-07-29T05:32:29;7.10;;;4.20;;
44832;SDS011;30569;51.252;9.830;2023-07-29T05:34:55;5.43;;;3.55;;
44832;SDS011;30569;51.252;9.830;2023-07-29T05:37:20;5.25;;;3.75;;
44832;SDS011;30569;51.252;9.830;2023-07-29T05:39:46;4.63;;;3.33;;
44832;SDS011;30569;51.252;9.830;2023-07-29T05:42:11;5.38;;;3.65;;
44832;SDS011;30569;51.252;9.830;2023-07-29T05:44:37;5.07;;;3.75;;
44832;SDS011;30569;51.252;9.830;2023-07-29T05:47:02;6.10;;;3.67;;
44832;SDS011;30569;51.252;9.830;2023-07-29T05:49:28;5.32;;;3.60;;
44832;SDS011;30569;51.252;9.830;2023-07-29T05:51:54;4.97;;;3.08;;
44832;SDS011;30569;51.252;9.830;2023-07-29T05:54:19;5.85;;;3.00;;
44832;SDS011;30569;51.252;9.830;2023-07-29T05:56:45;4.65;;;3.08;;
44832;SDS011;30569;51.252;9.830;2023-07-29T05:59:10;6.13;;;3.50;;
44832;SDS011;30569;51.252;9.830;2023-07-29T06:01:36;4.95;;;3.50;;
44832;SDS011;30569;51.252;9.830;2023-07-29T06:04:01;4.70;;;3.25;;
44832;SDS011;30569;51.252;9.830;2023-07-29T06:06:27;4.70;;;3.47;;
44832;SDS011;30569;51.252;9.830;2023-07-29T06:08:53;4.30;;;3.03;;
44832;SDS011;30569;51.252;9.830;2023-07-29T06:11:18;4.22;;;2.60;;
44832;SDS011;30569;51.252;9.830;2023-07-29T06:13:44;4.65;;;2.47;;
44832;SDS011;30569;51.252;9.830;2023-07-29T06:16:09;4.20;;;2.30;;
44832;SDS011;30569;51.252;9.830;2023-07-29T06:18:35;3.85;;;2.17;;
44832;SDS011;30569;51.252;9.830;2023-07-29T06:21:00;4.30;;;2.50;;
44832;SDS011;30569;51.252;9.830;2023-07-29T06:23:26;3.63;;;2.22;;
44832;SDS011;30569;51.252;9.830;2023-07-29T06:25:51;4.50;;;2.90;;
44832;SDS011;30569;51.252;9.830;2023-07-29T06:28:17;5.93;;;2.83;;
44832;SDS011;30569;51.252;9.830;2023-07-29T06:30:42;3.92;;;2.42;;
44832;SDS011;30569;51.252;9.830;2023-07-29T06:33:08;4.20;;;2.65;;
44832;SDS011;30569;51.252;9.830;2023-07-29T06:35:34;3.95;;;2.30;;
44832;SDS011;30569;51.252;9.830;2023-07-29T06:37:59;5.38;;;2.80;;
44832;SDS011;30569;51.252;9.830;2023-07-29T06:40:25;5.00;;;2.97;;
44832;SDS011;30569;51.252;9.830;2023-07-29T06:42:50;5.82;;;2.10;;
44832;SDS011;30569;51.252;9.830;2023-07-29T06:45:17;7.05;;;2.38;;
44832;SDS011;30569;51.252;9.830;2023-07-29T06:47:43;7.20;;;2.40;;
44832;SDS011;30569;51.252;9.830;2023-07-29T06:50:09;4.60;;;2.30;;
44832;SDS011;30569;51.252;9.830;2023-07-29T06:52:35;4.20;;;2.10;;
44832;SDS011;30569;51.252;9.830;2023-07-29T06:55:01;7.63;;;2.65;;
44832;SDS011;30569;51.252;9.830;2023-07-29T06:57:27;4.18;;;2.25;;
44832;SDS011;30569;51.252;9.830;2023-07-29T06:59:53;4.68;;;1.95;;
44832;SDS011;30569;51.252;9.830;2023-07-29T07:02:18;5.45;;;2.22;;
44832;SDS011;30569;51.252;9.830;2023-07-29T07:04:44;3.85;;;2.13;;
44832;SDS011;30569;51.252;9.830;2023-07-29T07:07:10;4.20;;;2.20;;
44832;SDS011;30569;51.252;9.830;2023-07-29T07:09:35;3.83;;;1.95;;
44832;SDS011;30569;51.252;9.830;2023-07-29T07:12:01;4.20;;;2.20;;
44832;SDS011;30569;51.252;9.830;2023-07-29T07:14:26;4.28;;;2.00;;
44832;SDS011;30569;51.252;9.830;2023-07-29T07:16:52;4.43;;;1.90;;
44832;SDS011;30569;51.252;9.830;2023-07-29T07:19:17;5.93;;;2.13;;
44832;SDS011;30569;51.252;9.830;2023-07-29T07:21:43;4.45;;;2.60;;
44832;SDS011;30569;51.252;9.830;2023-07-29T07:24:08;6.03;;;3.05;;
44832;SDS011;30569;51.252;9.830;2023-07-29T07:26:34;5.65;;;2.45;;
44832;SDS011;30569;51.252;9.830;2023-07-29T07:29:00;7.70;;;2.70;;
44832;SDS011;30569;51.252;9.830;2023-07-29T07:31:25;6.03;;;2.47;;
44832;SDS011;30569;51.252;9.830;2023-07-29T07:33:51;4.60;;;2.53;;
44832;SDS011;30569;51.252;9.830;2023-07-29T07:36:16;4.03;;;2.50;;
44832;SDS011;30569;51.252;9.830;2023-07-29T07:38:42;6.75;;;2.65;;
44832;SDS011;30569;51.252;9.830;2023-07-29T07:41:07;6.40;;;2.30;;
44832;SDS011;30569;51.252;9.830;2023-07-29T07:43:33;4.50;;;2.28;;
44832;SDS011;30569;51.252;9.830;2023-07-29T07:45:59;3.97;;;2.17;;
44832;SDS011;30569;51.252;9.830;2023-07-29T07:48:26;4.82;;;2.45;;
44832;SDS011;30569;51.252;9.830;2023-07-29T07:50:52;5.03;;;2.30;;
44832;SDS011;30569;51.252;9.830;2023-07-29T07:53:18;5.55;;;2.10;;
44832;SDS011;30569;51.252;9.830;2023-07-29T07:55:44;3.58;;;2.00;;
44832;SDS011;30569;51.252;9.830;2023-07-29T07:58:10;5.03;;;2.60;;
44832;SDS011;30569;51.252;9.830;2023-07-29T08:00:36;5.63;;;3.25;;
44832;SDS011;30569;51.252;9.830;2023-07-29T08:03:01;6.00;;;2.20;;
44832;SDS011;30569;51.252;9.830;2023-07-29T08:05:27;4.45;;;2.60;;
44832;SDS011;30569;51.252;9.830;2023-07-29T08:07:52;5.85;;;3.50;;
44832;SDS011;30569;51.252;9.830;2023-07-29T08:10:18;4.63;;;2.85;;
44832;SDS011;30569;51.252;9.830;2023-07-29T08:12:44;6.05;;;2.20;;
44832;SDS011;30569;51.252;9.830;2023-07-29T08:15:09;4.57;;;2.20;;
44832;SDS011;30569;51.252;9.830;2023-07-29T08:17:35;5.03;;;2.45;;
44832;SDS011;30569;51.252;9.830;2023-07-29T08:20:00;4.10;;;2.22;;
44832;SDS011;30569;51.252;9.830;2023-07-29T08:22:26;3.78;;;2.15;;
44832;SDS011;30569;51.252;9.830;2023-07-29T08:24:51;3.97;;;2.17;;
44832;SDS011;30569;51.252;9.830;2023-07-29T08:27:17;4.25;;;2.10;;
44832;SDS011;30569;51.252;9.830;2023-07-29T08:29:43;4.47;;;2.20;;
44832;SDS011;30569;51.252;9.830;2023-07-29T08:32:08;4.28;;;1.90;;
44832;SDS011;30569;51.252;9.830;2023-07-29T08:34:34;5.03;;;2.10;;
44832;SDS011;30569;51.252;9.830;2023-07-29T08:36:59;4.97;;;2.25;;
44832;SDS011;30569;51.252;9.830;2023-07-29T08:39:25;3.67;;;2.05;;
44832;SDS011;30569;51.252;9.830;2023-07-29T08:42:06;3.72;;;2.00;;
44832;SDS011;30569;51.252;9.830;2023-07-29T08:44:36;5.45;;;1.75;;
44832;SDS011;30569;51.252;9.830;2023-07-29T08:47:08;4.25;;;1.90;;
44832;SDS011;30569;51.252;9.830;2023-07-29T08:49:34;4.97;;;2.00;;
44832;SDS011;30569;51.252;9.830;2023-07-29T08:52:01;5.07;;;2.00;;
44832;SDS011;30569;51.252;9.830;2023-07-29T08:54:28;4.53;;;1.98;;
44832;SDS011;30569;51.252;9.830;2023-07-29T08:56:54;4.50;;;1.98;;
44832;SDS011;30569;51.252;9.830;2023-07-29T08:59:19;3.50;;;1.83;;
44832;SDS011;30569;51.252;9.830;2023-07-29T09:01:46;4.13;;;2.10;;
44832;SDS011;30569;51.252;9.830;2023-07-29T09:04:12;4.50;;;1.90;;
44832;SDS011;30569;51.252;9.830;2023-07-29T09:06:38;4.32;;;2.03;;
44832;SDS011;30569;51.252;9.830;2023-07-29T09:09:05;3.92;;;1.70;;
44832;SDS011;30569;51.252;9.830;2023-07-29T09:11:32;4.68;;;2.10;;
44832;SDS011;30569;51.252;9.830;2023-07-29T09:13:58;3.53;;;1.80;;
44832;SDS011;30569;51.252;9.830;2023-07-29T09:16:24;3.88;;;2.00;;
44832;SDS011;30569;51.252;9.830;2023-07-29T09:18:51;5.38;;;1.70;;
44832;SDS011;30569;51.252;9.830;2023-07-29T09:21:23;7.20;;;2.00;;
44832;SDS011;30569;51.252;9.830;2023-07-29T09:26:23;5.20;;;1.83;;
44832;SDS011;30569;51.252;9.830;2023-07-29T09:28:56;3.85;;;2.05;;
44832;SDS011;30569;51.252;9.830;2023-07-29T09:31:23;3.88;;;1.70;;
44832;SDS011;30569;51.252;9.830;2023-07-29T09:33:55;3.53;;;1.90;;
44832;SDS011;30569;51.252;9.830;2023-07-29T09:36:24;5.28;;;1.60;;
44832;SDS011;30569;51.252;9.830;2023-07-29T09:38:55;4.88;;;2.00;;
44832;SDS011;30569;51.252;9.830;2023-07-29T09:41:25;3.17;;;1.60;;
44832;SDS011;30569;51.252;9.830;2023-07-29T09:43:58;4.63;;;1.98;;
44832;SDS011;30569;51.252;9.830;2023-07-29T09:46:32;6.95;;;2.00;;
44832;SDS011;30569;51.252;9.830;2023-07-29T09:48:59;3.72;;;1.80;;
44832;SDS011;30569;51.252;9.830;2023-07-29T09:51:26;4.55;;;1.70;;
44832;SDS011;30569;51.252;9.830;2023-07-29T09:53:51;3.72;;;1.77;;
44832;SDS011;30569;51.252;9.830;2023-07-29T09:56:17;4.15;;;1.75;;
44832;SDS011;30569;51.252;9.830;2023-07-29T09:58:48;3.55;;;1.40;;
44832;SDS011;30569;51.252;9.830;2023-07-29T10:01:14;4.40;;;1.60;;
44832;SDS011;30569;51.252;9.830;2023-07-29T10:03:40;3.38;;;1.60;;
44832;SDS011;30569;51.252;9.830;2023-07-29T10:06:07;3.15;;;1.50;;
44832;SDS011;30569;51.252;9.830;2023-07-29T10:08:33;3.35;;;1.30;;
44832;SDS011;30569;51.252;9.830;2023-07-29T10:11:08;3.05;;;1.38;;
44832;SDS011;30569;51.252;9.830;2023-07-29T10:13:36;4.57;;;1.60;;
44832;SDS011;30569;51.252;9.830;2023-07-29T10:16:03;5.38;;;1.75;;
44832;SDS011;30569;51.252;9.830;2023-07-29T10:18:30;3.42;;;1.63;;
44832;SDS011;30569;51.252;9.830;2023-07-29T10:20:57;3.33;;;1.60;;
44832;SDS011;30569;51.252;9.830;2023-07-29T10:23:24;4.93;;;1.60;;
44832;SDS011;30569;51.252;9.830;2023-07-29T10:25:55;9.15;;;1.95;;
44832;SDS011;30569;51.252;9.830;2023-07-29T10:28:25;4.40;;;1.60;;
44832;SDS011;30569;51.252;9.830;2023-07-29T10:30:54;5.90;;;1.88;;
44832;SDS011;30569;51.252;9.830;2023-07-29T10:33:20;17.75;;;2.67;;
44832;SDS011;30569;51.252;9.830;2023-07-29T10:35:45;5.72;;;1.90;;
44832;SDS011;30569;51.252;9.830;2023-07-29T10:38:11;3.70;;;1.60;;
44832;SDS011;30569;51.252;9.830;2023-07-29T10:40:47;3.50;;;1.63;;
44832;SDS011;30569;51.252;9.830;2023-07-29T10:43:34;3.70;;;1.80;;
44832;SDS011;30569;51.252;9.830;2023-07-29T10:46:17;4.65;;;2.00;;
44832;SDS011;30569;51.252;9.830;2023-07-29T10:54:12;5.75;;;1.80;;
44832;SDS011;30569;51.252;9.830;2023-07-29T10:56:42;3.30;;;1.58;;
44832;SDS011;30569;51.252;9.830;2023-07-29T11:01:38;4.07;;;1.90;;
44832;SDS011;30569;51.252;9.830;2023-07-29T11:09:54;4.53;;;2.20;;
44832;SDS011;30569;51.252;9.830;2023-07-29T11:20:21;4.40;;;2.03;;
44832;SDS011;30569;51.252;9.830;2023-07-29T11:22:54;4.00;;;1.92;;
44832;SDS011;30569;51.252;9.830;2023-07-29T11:25:21;3.83;;;2.20;;
44832;SDS011;30569;51.252;9.830;2023-07-29T11:27:48;3.55;;;2.00;;
44832;SDS011;30569;51.252;9.830;2023-07-29T11:30:14;3.80;;;2.13;;
44832;SDS011;30569;51.252;9.830;2023-07-29T11:32:41;4.43;;;2.10;;
44832;SDS011;30569;51.252;9.830;2023-07-29T11:35:08;4.85;;;2.15;;
44832;SDS011;30569;51.252;9.830;2023-07-29T11:37:41;3.28;;;1.70;;
44832;SDS011;30569;51.252;9.830;2023-07-29T11:40:08;5.18;;;2.00;;
44832;SDS011;30569;51.252;9.830;2023-07-29T11:42:35;3.88;;;2.17;;
44832;SDS011;30569;51.252;9.830;2023-07-29T11:45:02;5.72;;;2.00;;
44832;SDS011;30569;51.252;9.830;2023-07-29T11:47:28;4.10;;;2.17;;
44832;SDS011;30569;51.252;9.830;2023-07-29T11:49:57;4.47;;;2.20;;
44832;SDS011;30569;51.252;9.830;2023-07-29T11:52:25;6.20;;;1.90;;
44832;SDS011;30569;51.252;9.830;2023-07-29T11:54:51;4.25;;;2.00;;
44832;SDS011;30569;51.252;9.830;2023-07-29T11:57:17;4.50;;;2.33;;
44832;SDS011;30569;51.252;9.830;2023-07-29T11:59:43;4.45;;;2.22;;
44832;SDS011;30569;51.252;9.830;2023-07-29T12:02:13;3.78;;;1.90;;
44832;SDS011;30569;51.252;9.830;2023-07-29T12:04:40;4.82;;;2.50;;
44832;SDS011;30569;51.252;9.830;2023-07-29T12:07:07;3.85;;;2.03;;
44832;SDS011;30569;51.252;9.830;2023-07-29T12:09:33;4.28;;;2.28;;
44832;SDS011;30569;51.252;9.830;2023-07-29T12:12:00;4.07;;;2.10;;
44832;SDS011;30569;51.252;9.830;2023-07-29T12:14:28;3.97;;;2.00;;
44832;SDS011;30569;51.252;9.830;2023-07-29T12:16:54;4.38;;;2.08;;
44832;SDS011;30569;51.252;9.830;2023-07-29T12:19:19;4.20;;;2.30;;
44832;SDS011;30569;51.252;9.830;2023-07-29T12:21:47;4.75;;;2.50;;
44832;SDS011;30569;51.252;9.830;2023-07-29T12:24:13;3.83;;;2.17;;
44832;SDS011;30569;51.252;9.830;2023-07-29T12:26:39;3.65;;;2.15;;
44832;SDS011;30569;51.252;9.830;2023-07-29T12:29:16;4.30;;;2.67;;
44832;SDS011;30569;51.252;9.830;2023-07-29T12:31:44;4.40;;;2.08;;
44832;SDS011;30569;51.252;9.830;2023-07-29T12:34:16;3.85;;;2.20;;
44832;SDS011;30569;51.252;9.830;2023-07-29T12:36:46;3.92;;;2.45;;
44832;SDS011;30569;51.252;9.830;2023-07-29T12:39:17;5.00;;;2.42;;
44832;SDS011;30569;51.252;9.830;2023-07-29T12:41:49;3.80;;;2.20;;
44832;SDS011;30569;51.252;9.830;2023-07-29T12:44:16;4.45;;;2.00;;
44832;SDS011;30569;51.252;9.830;2023-07-29T12:46:41;4.30;;;2.30;;
44832;SDS011;30569;51.252;9.830;2023-07-29T12:49:07;5.32;;;2.00;;
44832;SDS011;30569;51.252;9.830;2023-07-29T12:51:33;3.88;;;2.20;;
44832;SDS011;30569;51.252;9.830;2023-07-29T12:53:59;3.90;;;2.08;;
44832;SDS011;30569;51.252;9.830;2023-07-29T12:56:25;4.53;;;2.10;;
44832;SDS011;30569;51.252;9.830;2023-07-29T12:58:51;4.90;;;2.30;;
44832;SDS011;30569;51.252;9.830;2023-07-29T13:01:17;4.00;;;2.28;;
44832;SDS011;30569;51.252;9.830;2023-07-29T13:03:43;4.32;;;2.60;;
44832;SDS011;30569;51.252;9.830;2023-07-29T13:06:09;3.70;;;1.90;;
44832;SDS011;30569;51.252;9.830;2023-07-29T13:08:34;4.32;;;2.50;;
44832;SDS011;30569;51.252;9.830;2023-07-29T13:11:00;4.20;;;2.20;;
44832;SDS011;30569;51.252;9.830;2023-07-29T13:13:25;4.10;;;2.40;;
44832;SDS011;30569;51.252;9.830;2023-07-29T13:15:51;6.22;;;2.40;;
44832;SDS011;30569;51.252;9.830;2023-07-29T13:18:17;6.50;;;2.78;;
44832;SDS011;30569;51.252;9.830;2023-07-29T13:20:43;6.55;;;3.28;;
44832;SDS011;30569;51.252;9.830;2023-07-29T13:23:09;5.15;;;2.90;;
44832;SDS011;30569;51.252;9.830;2023-07-29T13:25:34;5.68;;;3.25;;
44832;SDS011;30569;51.252;9.830;2023-07-29T13:28:00;6.03;;;3.15;;
44832;SDS011;30569;51.252;9.830;2023-07-29T13:30:25;3.97;;;2.40;;
44832;SDS011;30569;51.252;9.830;2023-07-29T13:32:51;7.65;;;3.15;;
44832;SDS011;30569;51.252;9.830;2023-07-29T13:35:16;6.63;;;2.72;;
44832;SDS011;30569;51.252;9.830;2023-07-29T13:37:42;6.28;;;2.67;;
44832;SDS011;30569;51.252;9.830;2023-07-29T13:40:07;4.97;;;2.70;;
44832;SDS011;30569;51.252;9.830;2023-07-29T13:42:33;4.60;;;2.40;;
44832;SDS011;30569;51.252;9.830;2023-07-29T13:44:58;4.40;;;2.50;;
44832;SDS011;30569;51.252;9.830;2023-07-29T13:47:24;4.43;;;2.50;;
44832;SDS011;30569;51.252;9.830;2023-07-29T13:49:49;5.10;;;2.70;;
44832;SDS011;30569;51.252;9.830;2023-07-29T13:52:15;4.00;;;2.30;;
44832;SDS011;30569;51.252;9.830;2023-07-29T13:54:40;6.88;;;2.33;;
44832;SDS011;30569;51.252;9.830;2023-07-29T13:57:06;8.55;;;3.38;;
44832;SDS011;30569;51.252;9.830;2023-07-29T13:59:31;3.70;;;2.10;;
44832;SDS011;30569;51.252;9.830;2023-07-29T14:01:57;3.83;;;2.38;;
44832;SDS011;30569;51.252;9.830;2023-07-29T14:04:23;12.70;;;3.22;;
44832;SDS011;30569;51.252;9.830;2023-07-29T14:06:48;6.38;;;2.80;;
44832;SDS011;30569;51.252;9.830;2023-07-29T14:09:14;5.00;;;2.22;;
44832;SDS011;30569;51.252;9.830;2023-07-29T14:11:39;6.20;;;2.22;;
44832;SDS011;30569;51.252;9.830;2023-07-29T14:14:05;5.28;;;1.73;;
44832;SDS011;30569;51.252;9.830;2023-07-29T14:16:31;4.30;;;2.22;;
44832;SDS011;30569;51.252;9.830;2023-07-29T14:18:57;5.55;;;2.08;;
44832;SDS011;30569;51.252;9.830;2023-07-29T14:21:22;3.60;;;1.95;;
44832;SDS011;30569;51.252;9.830;2023-07-29T14:23:48;4.55;;;2.10;;
44832;SDS011;30569;51.252;9.830;2023-07-29T14:26:13;4.75;;;1.73;;
44832;SDS011;30569;51.252;9.830;2023-07-29T14:28:39;3.88;;;1.58;;
44832;SDS011;30569;51.252;9.830;2023-07-29T14:31:04;3.65;;;1.80;;
44832;SDS011;30569;51.252;9.830;2023-07-29T14:33:30;3.50;;;1.83;;
44832;SDS011;30569;51.252;9.830;2023-07-29T14:35:56;5.03;;;1.90;;
44832;SDS011;30569;51.252;9.830;2023-07-29T14:38:21;3.83;;;1.70;;
44832;SDS011;30569;51.252;9.830;2023-07-29T14:40:47;3.60;;;1.80;;
44832;SDS011;30569;51.252;9.830;2023-07-29T14:43:15;3.35;;;1.75;;
44832;SDS011;30569;51.252;9.830;2023-07-29T14:45:41;3.40;;;1.70;;
44832;SDS011;30569;51.252;9.830;2023-07-29T14:48:07;4.07;;;1.90;;
44832;SDS011;30569;51.252;9.830;2023-07-29T14:50:32;3.65;;;1.92;;
44832;SDS011;30569;51.252;9.830;2023-07-29T14:52:58;3.30;;;1.70;;
44832;SDS011;30569;51.252;9.830;2023-07-29T14:55:23;3.78;;;2.00;;
44832;SDS011;30569;51.252;9.830;2023-07-29T14:57:49;4.53;;;1.80;;
44832;SDS011;30569;51.252;9.830;2023-07-29T15:00:14;3.85;;;1.88;;
44832;SDS011;30569;51.252;9.830;2023-07-29T15:02:40;3.60;;;1.90;;
44832;SDS011;30569;51.252;9.830;2023-07-29T15:05:06;5.65;;;1.88;;
44832;SDS011;30569;51.252;9.830;2023-07-29T15:07:32;3.70;;;2.10;;
44832;SDS011;30569;51.252;9.830;2023-07-29T15:09:57;6.65;;;1.88;;